Time;durP1;ratioP1;P1;durP2;ratioP2;P2;SDS_P1;SDS_P2;PMS_P1;PMS_P2;Temp;Humidity;BMP_temperature;BMP_pressure;BME280_temperature;BME280_humidity;BME280_pressure;Samples;Min_cycle;Max_cycle;Signal;HPM_P1;HPM_P2
2022/07/02 00:00:02;;;;;;;2.50;1.47;;;;;;;16.87;54.63;101899.19;4957896;28;97217;-48
2022/07/02 00:02:28;;;;;;;1.50;1.40;;;;;;;16.86;54.56;101899.72;4960642;28;97551;-48
2022/07/02 00:05:02;;;;;;;2.60;1.40;;;;;;;16.85;54.90;101910.06;4964632;28;97345;-47
2022/07/02 00:07:28;;;;;;;3.67;1.60;;;;;;;16.84;54.75;101899.47;4960189;28;102219;-48
2022/07/02 00:09:55;;;;;;;2.70;2.03;;;;;;;16.82;54.80;101896.44;4962061;28;97187;-48
2022/07/02 00:12:21;;;;;;;2.33;1.77;;;;;;;16.80;54.81;101898.94;4966325;28;96913;-47
2022/07/02 00:14:50;;;;;;;1.10;1.10;;;;;;;16.80;54.97;101896.16;4962119;28;98764;-48
2022/07/02 00:17:16;;;;;;;1.50;1.50;;;;;;;16.77;54.83;101891.63;4961909;28;97494;-48
2022/07/02 00:19:43;;;;;;;1.50;1.40;;;;;;;16.75;54.86;101883.81;4961468;28;97057;-48
2022/07/02 00:22:09;;;;;;;1.63;1.53;;;;;;;16.73;54.92;101891.13;4963320;28;96795;-48
2022/07/02 00:24:39;;;;;;;4.30;1.53;;;;;;;16.70;54.95;101887.31;4963690;28;97400;-48
2022/07/02 00:27:07;;;;;;;1.50;1.40;;;;;;;16.65;54.94;101892.88;4945910;28;97117;-47
2022/07/02 00:29:37;;;;;;;1.30;1.20;;;;;;;16.61;54.84;101893.13;4963805;28;96943;-47
2022/07/02 00:32:04;;;;;;;1.33;1.33;;;;;;;16.57;54.82;101897.41;4961560;28;97091;-48
2022/07/02 00:34:32;;;;;;;1.37;1.37;;;;;;;16.52;55.00;101882.25;4968102;28;97192;-47
2022/07/02 00:36:57;;;;;;;1.20;1.20;;;;;;;16.52;55.03;101890.59;4963013;28;96978;-48
2022/07/02 00:39:23;;;;;;;1.80;1.10;;;;;;;16.51;55.17;101900.19;4962544;28;96755;-47
2022/07/02 00:41:49;;;;;;;1.60;1.50;;;;;;;16.47;55.21;101900.41;4962368;28;97238;-47
2022/07/02 00:44:17;;;;;;;1.30;1.20;;;;;;;16.46;55.09;101896.13;4959663;28;96754;-47
2022/07/02 00:46:44;;;;;;;1.20;1.10;;;;;;;16.43;55.18;101897.13;4961222;28;97399;-47
2022/07/02 00:49:12;;;;;;;2.70;1.87;;;;;;;16.42;55.20;101903.91;4962475;28;97101;-47
2022/07/02 00:51:37;;;;;;;2.17;1.60;;;;;;;16.40;55.28;101903.66;4960624;28;97139;-48
2022/07/02 00:54:03;;;;;;;1.50;1.40;;;;;;;16.38;55.41;101900.63;4968068;28;97165;-47
2022/07/02 00:56:28;;;;;;;5.37;1.60;;;;;;;16.37;55.36;101896.34;4958692;28;102403;-47
2022/07/02 00:58:53;;;;;;;1.50;1.40;;;;;;;16.35;55.28;101901.66;4963884;28;97284;-48
2022/07/02 01:01:19;;;;;;;2.10;1.90;;;;;;;16.33;55.25;101906.97;4960181;28;97399;-48
2022/07/02 01:03:47;;;;;;;1.30;1.30;;;;;;;16.30;55.32;101909.97;4963094;28;97157;-47
2022/07/02 01:06:13;;;;;;;1.30;1.30;;;;;;;16.26;55.33;101906.69;4956748;28;102003;-48
2022/07/02 01:11:26;;;;;;;1.50;1.40;;;;;;;16.19;55.22;101913.47;4961202;28;97009;-48
2022/07/02 01:13:54;;;;;;;1.27;1.27;;;;;;;16.16;55.47;101922.78;5022973;22;97231;-49
2022/07/02 01:16:19;;;;;;;1.43;1.37;;;;;;;16.12;55.32;101925.06;5018334;28;101462;-49
2022/07/02 01:18:45;;;;;;;1.43;1.33;;;;;;;16.08;55.37;101921.00;5016442;28;97264;-49
2022/07/02 01:21:11;;;;;;;1.50;1.50;;;;;;;16.05;55.34;101927.56;5020554;28;97204;-49
2022/07/02 01:23:36;;;;;;;1.07;1.07;;;;;;;16.02;55.50;101921.00;5002553;28;97048;-49
2022/07/02 01:26:01;;;;;;;1.83;1.67;;;;;;;16.01;55.58;101929.84;4998442;28;97379;-49
2022/07/02 01:28:27;;;;;;;2.30;1.40;;;;;;;16.00;55.55;101928.31;4993742;28;97279;-48
2022/07/02 01:30:53;;;;;;;1.50;1.40;;;;;;;15.97;55.58;101921.72;4998487;28;97367;-49
2022/07/02 01:33:18;;;;;;;1.40;1.30;;;;;;;15.97;55.75;101924.50;5000100;28;97204;-49
2022/07/02 01:35:44;;;;;;;1.40;1.30;;;;;;;15.94;55.74;101928.28;5000045;28;97182;-50
2022/07/02 01:38:09;;;;;;;1.30;1.30;;;;;;;15.94;55.60;101919.19;4994405;28;97611;-49
2022/07/02 01:40:35;;;;;;;1.50;1.50;;;;;;;15.92;55.66;101919.72;4998452;28;96991;-49
2022/07/02 01:43:00;;;;;;;1.50;1.40;;;;;;;15.91;55.72;101926.50;4993481;28;97135;-49
2022/07/02 01:45:25;;;;;;;2.00;1.40;;;;;;;15.89;55.63;101922.72;4996928;28;97798;-48
2022/07/02 01:47:51;;;;;;;1.40;1.30;;;;;;;15.85;55.70;101925.72;4995431;28;96834;-49
2022/07/02 01:50:16;;;;;;;1.50;1.50;;;;;;;15.82;55.64;101932.25;5000425;28;97600;-49
2022/07/02 01:52:42;;;;;;;1.20;1.10;;;;;;;15.77;55.58;101927.44;4994700;28;97377;-49
2022/07/02 01:55:07;;;;;;;1.60;1.50;;;;;;;15.71;55.81;101923.88;4999307;28;97314;-49
2022/07/02 01:57:35;;;;;;;2.40;1.40;;;;;;;15.67;55.64;101926.13;4998788;28;97176;-49
2022/07/02 02:00:11;;;;;;;1.27;1.17;;;;;;;15.64;56.02;101936.22;4999201;28;97203;-49
2022/07/02 02:02:37;;;;;;;1.23;1.13;;;;;;;15.61;55.82;101944.78;4998499;28;97531;-49
2022/07/02 02:05:03;;;;;;;1.27;1.17;;;;;;;15.58;55.87;101943.75;4996348;28;97143;-49
2022/07/02 02:07:29;;;;;;;5.20;1.40;;;;;;;15.57;55.83;101939.44;4992344;28;97486;-49
2022/07/02 02:09:54;;;;;;;3.27;1.27;;;;;;;15.56;55.86;101931.63;4996904;28;97126;-49
2022/07/02 02:12:21;;;;;;;1.17;1.17;;;;;;;15.56;55.90;101939.94;4996266;28;97020;-50
2022/07/02 02:14:46;;;;;;;1.47;1.37;;;;;;;15.55;55.88;101935.66;4995582;28;97467;-49
2022/07/02 02:17:12;;;;;;;1.10;1.00;;;;;;;15.51;55.85;101940.66;4996564;28;97128;-49
2022/07/02 02:19:37;;;;;;;1.00;1.00;;;;;;;15.46;55.92;101935.84;4998397;28;97134;-49
2022/07/02 02:22:03;;;;;;;1.33;1.10;;;;;;;15.45;56.03;101942.66;4996889;28;97343;-49
2022/07/02 02:24:28;;;;;;;1.73;1.23;;;;;;;15.43;55.89;101937.59;4993829;28;97005;-49
2022/07/02 02:26:54;;;;;;;1.07;1.07;;;;;;;15.43;56.16;101936.81;4993681;28;98894;-49
2022/07/02 02:29:19;;;;;;;1.10;1.00;;;;;;;15.40;55.99;101948.88;4992842;28;96990;-49
2022/07/02 02:31:44;;;;;;;1.77;1.40;;;;;;;15.38;56.03;101935.50;4987170;28;97632;-48
2022/07/02 02:34:10;;;;;;;1.20;1.20;;;;;;;15.36;55.94;101943.56;4998893;28;97278;-49
2022/07/02 02:36:35;;;;;;;1.17;1.17;;;;;;;15.34;55.98;101943.31;4995636;28;96834;-49
2022/07/02 02:39:00;;;;;;;1.07;1.00;;;;;;;15.34;55.98;101945.31;5000140;28;97250;-49
2022/07/02 02:41:26;;;;;;;1.37;1.27;;;;;;;15.26;56.00;101936.72;4993830;28;97072;-49
2022/07/02 02:43:51;;;;;;;1.47;1.27;;;;;;;15.19;56.02;101945.47;4995706;28;97266;-49
2022/07/02 02:46:17;;;;;;;1.07;1.07;;;;;;;15.13;56.21;101946.69;4999871;28;97254;-50
2022/07/02 02:48:42;;;;;;;1.97;1.43;;;;;;;15.08;56.15;101941.84;4994989;28;97057;-48
2022/07/02 02:51:08;;;;;;;1.53;1.43;;;;;;;15.04;56.19;101944.84;4995532;28;97329;-48
2022/07/02 02:53:34;;;;;;;1.27;1.27;;;;;;;15.02;56.21;101942.59;4994614;28;97074;-49
2022/07/02 02:56:00;;;;;;;1.20;1.10;;;;;;;14.99;56.35;101949.09;4991212;28;97292;-48
2022/07/02 02:58:26;;;;;;;1.33;1.27;;;;;;;14.99;56.47;101951.88;4997641;28;96990;-49
2022/07/02 03:00:52;;;;;;;1.30;1.20;;;;;;;15.01;56.41;101951.38;4989410;28;96889;-48
2022/07/02 03:03:17;;;;;;;1.57;1.20;;;;;;;15.01;56.38;101968.78;4996759;28;97333;-50
2022/07/02 03:05:46;;;;;;;1.10;1.10;;;;;;;14.99;56.54;101965.72;4992522;28;97335;-50
2022/07/02 03:08:12;;;;;;;2.60;1.60;;;;;;;15.00;56.22;101955.41;4989667;28;97128;-49
2022/07/02 03:10:37;;;;;;;2.53;1.40;;;;;;;14.96;56.42;101971.50;4997925;28;97243;-48
2022/07/02 03:13:02;;;;;;;1.30;1.30;;;;;;;14.93;56.36;101961.38;4993184;28;97423;-49
2022/07/02 03:15:29;;;;;;;1.70;1.60;;;;;;;14.90;56.45;101965.91;5002389;28;97149;-49
2022/07/02 03:17:54;;;;;;;0.93;0.93;;;;;;;14.90;56.56;101971.44;5008108;28;96985;-49
2022/07/02 03:20:19;;;;;;;1.27;1.20;;;;;;;14.91;56.50;101972.97;5004357;28;97185;-50
2022/07/02 03:22:45;;;;;;;1.30;1.20;;;;;;;14.92;56.50;101976.47;5001411;28;98269;-49
2022/07/02 03:25:11;;;;;;;1.40;1.40;;;;;;;14.92;56.48;101979.25;4994721;28;97933;-49
2022/07/02 03:27:37;;;;;;;1.20;1.20;;;;;;;14.92;56.54;101977.25;4998600;28;96978;-49
2022/07/02 03:30:03;;;;;;;1.03;1.03;;;;;;;14.91;56.53;101986.81;4998911;28;96805;-50
2022/07/02 03:32:29;;;;;;;1.07;1.07;;;;;;;14.89;56.36;101991.34;5003723;28;97386;-49
2022/07/02 03:34:56;;;;;;;1.13;1.13;;;;;;;14.88;56.51;101987.78;5004387;28;97171;-50
2022/07/02 03:37:25;;;;;;;2.00;1.30;;;;;;;14.88;56.47;101987.78;5007333;28;96830;-49
2022/07/02 03:39:51;;;;;;;1.23;1.23;;;;;;;14.85;56.52;101988.03;4999774;28;97006;-49
2022/07/02 03:42:16;;;;;;;1.30;1.20;;;;;;;14.85;56.46;101985.25;4998296;28;96915;-49
2022/07/02 03:44:41;;;;;;;1.70;1.20;;;;;;;14.82;56.61;101984.22;4993548;28;106547;-49
2022/07/02 03:47:07;;;;;;;30.73;1.80;;;;;;;14.81;56.57;101984.69;4994951;28;97425;-49
2022/07/02 03:49:32;;;;;;;1.40;1.30;;;;;;;14.79;56.49;101989.97;4997357;28;97114;-49
2022/07/02 03:51:58;;;;;;;1.60;1.60;;;;;;;14.75;56.55;101992.19;5002343;28;97335;-49
2022/07/02 03:54:23;;;;;;;1.17;1.10;;;;;;;14.74;56.57;102002.50;4999492;28;97850;-49
2022/07/02 03:56:48;;;;;;;1.60;1.50;;;;;;;14.73;56.57;102001.00;5000325;28;97205;-48
2022/07/02 03:59:14;;;;;;;2.13;1.27;;;;;;;14.73;56.67;102000.22;4995684;28;97134;-49
2022/07/02 04:01:39;;;;;;;1.33;1.33;;;;;;;14.73;56.66;102006.53;4997833;28;96881;-49
2022/07/02 04:04:04;;;;;;;1.10;1.10;;;;;;;14.74;56.69;102013.59;4995993;28;102173;-48
2022/07/02 04:06:30;;;;;;;1.17;1.17;;;;;;;14.73;56.87;102009.31;4994862;28;97287;-49
2022/07/02 04:08:55;;;;;;;2.30;1.60;;;;;;;14.74;56.78;102007.31;4996719;28;97198;-48
2022/07/02 04:11:20;;;;;;;0.97;0.97;;;;;;;14.71;56.78;102009.03;4996777;28;103254;-49
2022/07/02 04:13:46;;;;;;;1.40;1.30;;;;;;;14.69;56.91;102008.78;4992396;28;107104;-49
2022/07/02 04:16:11;;;;;;;1.27;1.27;;;;;;;14.67;57.02;102010.50;4990679;28;96876;-50
2022/07/02 04:18:36;;;;;;;1.33;1.23;;;;;;;14.62;56.97;102016.72;5006797;28;97049;-50
2022/07/02 04:21:02;;;;;;;1.23;1.13;;;;;;;14.61;56.95;102021.50;4999959;28;97161;-49
2022/07/02 04:23:27;;;;;;;2.30;1.50;;;;;;;14.63;57.14;102016.25;5001985;28;97193;-49
2022/07/02 04:25:52;;;;;;;1.23;1.13;;;;;;;14.65;57.04;102015.78;4997368;28;96929;-49
2022/07/02 04:28:18;;;;;;;1.40;1.30;;;;;;;14.67;57.04;102013.28;4998377;28;107989;-51
2022/07/02 04:30:43;;;;;;;1.10;1.10;;;;;;;14.67;57.03;102011.28;4999067;28;97262;-49
2022/07/02 04:33:09;;;;;;;1.40;1.37;;;;;;;14.65;57.00;102018.53;5002091;28;97320;-49
2022/07/02 04:35:34;;;;;;;2.87;1.53;;;;;;;14.63;57.07;102016.25;4997084;28;96563;-49
2022/07/02 04:38:00;;;;;;;2.10;1.23;;;;;;;14.60;57.26;102027.53;4989864;28;96812;-49
2022/07/02 04:40:25;;;;;;;2.07;1.33;;;;;;;14.59;57.35;102032.31;4994915;28;97407;-49
2022/07/02 04:42:51;;;;;;;1.60;1.50;;;;;;;14.61;57.33;102034.63;4998420;28;97818;-49
2022/07/02 04:45:16;;;;;;;1.67;1.57;;;;;;;14.62;57.45;102034.13;4994179;28;96756;-49
2022/07/02 04:47:42;;;;;;;1.37;1.37;;;;;;;14.65;57.46;102024.84;4997040;28;96908;-49
2022/07/02 04:50:07;;;;;;;1.90;1.20;;;;;;;14.70;57.46;102028.94;5006392;28;97324;-49
2022/07/02 04:52:33;;;;;;;1.37;1.30;;;;;;;14.74;57.36;102032.97;5006103;28;97028;-49
2022/07/02 04:54:58;;;;;;;1.30;1.20;;;;;;;14.77;57.32;102028.47;4994498;28;97273;-48
2022/07/02 04:57:24;;;;;;;1.70;1.60;;;;;;;14.79;57.41;102029.50;4993063;28;97081;-49
2022/07/02 04:59:49;;;;;;;2.23;1.30;;;;;;;14.78;57.45;102028.00;4985224;28;96732;-49
2022/07/02 05:02:14;;;;;;;1.07;1.07;;;;;;;14.80;57.48;102036.59;4996258;28;96958;-49
2022/07/02 05:04:40;;;;;;;0.97;0.97;;;;;;;14.84;57.65;102036.38;4989976;28;97266;-48
2022/07/02 05:07:05;;;;;;;1.33;1.33;;;;;;;14.87;57.41;102036.13;4990845;28;100954;-48
2022/07/02 05:09:31;;;;;;;1.40;1.40;;;;;;;14.93;57.50;102045.28;4992851;28;97444;-49
2022/07/02 05:11:57;;;;;;;1.40;1.30;;;;;;;14.97;57.76;102031.22;4979059;28;97266;-50
2022/07/02 05:14:22;;;;;;;1.30;1.30;;;;;;;15.01;57.61;102042.84;4997407;28;96750;-49
2022/07/02 05:16:48;;;;;;;1.47;1.10;;;;;;;15.04;57.74;102039.09;4988164;28;97444;-49
2022/07/02 05:19:13;;;;;;;0.90;0.90;;;;;;;15.06;57.88;102053.22;5001559;28;97145;-49
2022/07/02 05:21:40;;;;;;;1.80;1.10;;;;;;;15.09;57.80;102049.47;5005979;28;97117;-49
2022/07/02 05:24:05;;;;;;;1.50;1.00;;;;;;;15.12;58.00;102051.25;5002115;28;96789;-49
2022/07/02 05:26:31;;;;;;;1.00;1.00;;;;;;;15.12;58.13;102044.94;5001864;28;97315;-49
2022/07/02 05:28:56;;;;;;;4.43;1.27;;;;;;;15.20;58.18;102055.09;4991554;28;97369;-49
2022/07/02 05:31:22;;;;;;;1.30;1.20;;;;;;;15.27;58.26;102051.13;4994292;28;97943;-49
2022/07/02 05:33:47;;;;;;;1.30;1.20;;;;;;;15.34;58.21;102054.25;4988866;28;97070;-49
2022/07/02 05:36:12;;;;;;;1.40;1.10;;;;;;;15.44;58.18;102054.88;5006863;28;96903;-50
2022/07/02 05:38:38;;;;;;;1.37;1.20;;;;;;;15.53;58.27;102060.22;5000255;28;96721;-49
2022/07/02 05:41:03;;;;;;;1.13;1.13;;;;;;;15.62;58.37;102063.56;4991166;28;97762;-49
2022/07/02 05:43:29;;;;;;;1.80;1.10;;;;;;;15.73;58.29;102071.22;4991988;28;96892;-49
2022/07/02 05:45:54;;;;;;;1.30;1.20;;;;;;;15.83;58.35;102071.78;4988618;28;97250;-49
2022/07/02 05:48:19;;;;;;;0.80;0.80;;;;;;;15.94;58.39;102064.31;4991354;28;97410;-49
2022/07/02 05:50:45;;;;;;;1.80;1.17;;;;;;;16.03;58.44;102068.91;4994365;28;112658;-49
2022/07/02 05:53:12;;;;;;;1.17;1.07;;;;;;;16.15;58.53;102068.47;4988893;28;96811;-49
2022/07/02 05:55:37;;;;;;;1.03;1.03;;;;;;;16.25;58.51;102069.03;4996489;28;96589;-49
2022/07/02 05:58:02;;;;;;;1.30;1.20;;;;;;;16.38;58.46;102077.69;4991503;28;99243;-49
2022/07/02 06:00:28;;;;;;;1.30;1.20;;;;;;;16.51;58.51;102077.25;4997377;28;96638;-49
2022/07/02 06:02:53;;;;;;;3.53;1.33;;;;;;;16.61;58.53;102084.88;4993873;28;97460;-49
2022/07/02 06:08:03;;;;;;;3.07;1.10;;;;;;;16.88;58.51;102075.88;4994182;28;100740;-49
2022/07/02 06:10:28;;;;;;;1.40;1.30;;;;;;;17.03;58.50;102081.97;4989016;28;97189;-49
2022/07/02 06:12:54;;;;;;;0.90;0.90;;;;;;;17.19;58.49;102077.66;4993577;28;97072;-49
2022/07/02 06:15:20;;;;;;;1.17;1.00;;;;;;;17.32;58.43;102077.19;4994973;28;96792;-49
2022/07/02 06:17:46;;;;;;;1.40;1.23;;;;;;;17.44;58.46;102082.25;5007653;28;97078;-49
2022/07/02 06:20:13;;;;;;;1.57;0.90;;;;;;;17.57;57.88;102076.97;4998890;28;97038;-49
2022/07/02 06:22:39;;;;;;;2.43;0.70;;;;;;;17.75;57.75;102087.59;4995941;28;97218;-49
2022/07/02 06:25:06;;;;;;;2.03;0.80;;;;;;;17.92;57.54;102084.78;4997018;28;96696;-49
2022/07/02 06:27:33;;;;;;;1.03;0.80;;;;;;;18.07;57.62;102088.03;4996483;28;97298;-48
2022/07/02 06:29:59;;;;;;;0.93;0.83;;;;;;;18.20;57.45;102084.72;4999213;28;97076;-48
2022/07/02 06:32:25;;;;;;;1.53;0.67;;;;;;;18.35;57.00;102079.59;5000036;28;97122;-49
2022/07/02 06:34:50;;;;;;;0.90;0.90;;;;;;;18.48;56.98;102082.63;5004738;28;97226;-49
2022/07/02 06:37:15;;;;;;;1.20;0.80;;;;;;;18.58;56.39;102078.28;4998925;28;97059;-49
2022/07/02 06:39:41;;;;;;;1.50;0.83;;;;;;;18.72;56.31;102088.34;4992805;28;96850;-49
2022/07/02 06:42:29;;;;;;;1.73;0.60;;;;;;;18.85;56.12;102085.75;4990592;28;97446;-49
2022/07/02 06:44:57;;;;;;;0.70;0.63;;;;;;;18.97;56.21;102084.41;4994691;28;96882;-49
2022/07/02 06:47:23;;;;;;;1.97;0.60;;;;;;;19.08;55.92;102081.56;4995483;28;97190;-49
2022/07/02 06:49:50;;;;;;;1.03;0.67;;;;;;;19.20;55.75;102087.81;5001525;28;97044;-49
2022/07/02 06:52:16;;;;;;;1.13;0.60;;;;;;;19.31;55.48;102088.50;5007186;28;97269;-49
2022/07/02 06:54:43;;;;;;;1.97;0.60;;;;;;;19.43;55.14;102089.97;5002892;28;97018;-49
2022/07/02 06:57:09;;;;;;;0.80;0.60;;;;;;;19.55;55.09;102109.41;5004338;28;97380;-49
2022/07/02 06:59:35;;;;;;;5.80;0.80;;;;;;;19.64;54.57;102101.47;4982745;28;97439;-49
2022/07/02 07:02:00;;;;;;;1.03;0.60;;;;;;;19.77;54.48;102100.84;4999325;28;96712;-50
2022/07/02 07:04:27;;;;;;;1.63;0.70;;;;;;;19.90;54.10;102098.16;5000009;28;96954;-49
2022/07/02 07:06:56;;;;;;;0.93;0.60;;;;;;;20.01;53.83;102098.06;4996940;28;96887;-49
2022/07/02 07:09:22;;;;;;;2.00;0.60;;;;;;;20.12;53.43;102100.75;4997523;28;97713;-49
2022/07/02 07:11:47;;;;;;;2.40;0.70;;;;;;;20.22;53.41;102107.53;4999201;28;97361;-48
2022/07/02 07:14:13;;;;;;;0.73;0.70;;;;;;;20.35;52.96;102104.09;4998966;28;96951;-50
2022/07/02 07:16:39;;;;;;;1.77;0.90;;;;;;;20.48;53.01;102101.38;4994099;28;97523;-49
2022/07/02 07:19:04;;;;;;;0.80;0.60;;;;;;;20.62;52.58;102103.00;4995387;28;97272;-47
2022/07/02 07:21:31;;;;;;;0.90;0.50;;;;;;;20.70;52.30;102101.88;4998450;28;96989;-50
2022/07/02 07:23:56;;;;;;;1.47;0.60;;;;;;;20.78;52.36;102107.63;4993498;28;96992;-48
2022/07/02 07:26:22;;;;;;;3.33;1.07;;;;;;;20.88;52.05;102103.91;4996273;28;98909;-49
2022/07/02 07:28:47;;;;;;;2.50;0.70;;;;;;;21.00;51.68;102112.91;4999623;28;97188;-49
2022/07/02 07:31:12;;;;;;;0.83;0.50;;;;;;;21.14;51.65;102111.72;5000112;28;97203;-49
2022/07/02 07:33:38;;;;;;;0.50;0.40;;;;;;;21.21;51.11;102115.97;4994992;28;96949;-49
2022/07/02 07:36:03;;;;;;;0.90;0.70;;;;;;;21.33;51.02;102120.84;4997571;28;97303;-49
2022/07/02 07:38:29;;;;;;;0.97;0.70;;;;;;;21.44;50.66;102114.31;4999726;28;97182;-54
2022/07/02 07:40:55;;;;;;;0.80;0.50;;;;;;;21.56;50.57;102118.44;4997599;28;96996;-49
2022/07/02 07:43:20;;;;;;;2.13;0.70;;;;;;;21.69;50.53;102126.16;4992360;28;96816;-48
2022/07/02 07:45:46;;;;;;;5.13;0.70;;;;;;;21.79;50.08;102116.03;4994061;28;97016;-49
2022/07/02 07:48:13;;;;;;;1.50;1.00;;;;;;;21.87;49.70;102117.69;5001843;28;97207;-48
2022/07/02 07:50:38;;;;;;;1.40;0.87;;;;;;;21.96;49.22;102122.13;5004602;28;96878;-49
2022/07/02 07:53:04;;;;;;;2.73;0.80;;;;;;;22.03;49.20;102119.44;4988479;28;96697;-49
2022/07/02 07:55:29;;;;;;;0.80;0.50;;;;;;;22.13;48.97;102126.13;4992186;28;98894;-49
2022/07/02 07:57:55;;;;;;;0.57;0.40;;;;;;;22.24;48.72;102127.97;4998989;28;97016;-50
2022/07/02 08:00:21;;;;;;;0.70;0.70;;;;;;;22.30;48.43;102115.34;4999174;28;97292;-49
2022/07/02 08:02:46;;;;;;;1.43;0.63;;;;;;;22.39;48.34;102123.34;5005635;28;97137;-49
2022/07/02 08:05:12;;;;;;;1.23;0.70;;;;;;;22.51;48.10;102120.31;4995174;28;98975;-49
2022/07/02 08:07:39;;;;;;;0.80;0.60;;;;;;;22.60;47.58;102119.91;4996836;28;97124;-50
2022/07/02 08:10:10;;;;;;;1.07;0.47;;;;;;;22.69;47.08;102119.47;4997539;28;96669;-49
2022/07/02 08:12:36;;;;;;;1.77;0.60;;;;;;;22.80;47.68;102122.75;4998915;28;97310;-49
2022/07/02 08:15:02;;;;;;;1.70;0.50;;;;;;;22.91;47.10;102116.91;4991923;28;97240;-50
2022/07/02 08:17:29;;;;;;;2.33;0.50;;;;;;;23.02;47.01;102113.13;4986313;28;97322;-50
2022/07/02 08:19:55;;;;;;;3.33;0.70;;;;;;;23.13;46.74;102118.47;5002089;28;96946;-48
2022/07/02 08:22:20;;;;;;;1.97;0.60;;;;;;;23.27;46.19;102113.56;4996088;28;97159;-50
2022/07/02 08:24:45;;;;;;;1.93;0.70;;;;;;;23.37;46.15;102109.75;4997402;28;96953;-49
2022/07/02 08:27:11;;;;;;;1.67;0.50;;;;;;;23.44;46.09;102111.88;4998198;28;96931;-49
2022/07/02 08:29:36;;;;;;;1.00;0.60;;;;;;;23.52;45.82;102115.53;4998505;28;97068;-49
2022/07/02 08:32:03;;;;;;;2.20;0.50;;;;;;;23.57;45.76;102111.81;4998095;28;97460;-48
2022/07/02 08:34:30;;;;;;;1.33;0.70;;;;;;;23.54;45.39;102112.94;4995336;28;97209;-49
2022/07/02 08:36:56;;;;;;;1.23;0.80;;;;;;;23.63;45.48;102106.81;4991505;28;97477;-49
2022/07/02 08:39:21;;;;;;;2.07;0.60;;;;;;;23.76;45.48;102106.72;4991291;28;96597;-49
2022/07/02 08:41:49;;;;;;;1.13;0.60;;;;;;;23.87;45.37;102110.56;4993932;28;97172;-49
2022/07/02 08:44:15;;;;;;;0.90;0.80;;;;;;;23.95;44.79;102106.50;4987341;28;96917;-49
2022/07/02 08:46:43;;;;;;;3.80;0.80;;;;;;;23.95;44.64;102117.00;4992476;28;97896;-49
2022/07/02 08:49:11;;;;;;;3.03;0.87;;;;;;;23.84;44.59;102107.56;4994269;28;97087;-49
2022/07/02 08:51:36;;;;;;;1.97;0.50;;;;;;;23.84;44.63;102101.94;4996922;28;97323;-49
2022/07/02 08:54:02;;;;;;;0.80;0.57;;;;;;;23.93;44.41;102103.50;4992563;28;97126;-49
2022/07/02 08:56:31;;;;;;;0.80;0.70;;;;;;;23.96;44.47;102098.81;4995376;28;97155;-49
2022/07/02 08:58:57;;;;;;;2.33;0.60;;;;;;;23.94;44.21;102095.81;4990610;28;97406;-49
2022/07/02 09:01:23;;;;;;;2.00;0.70;;;;;;;23.91;44.08;102089.22;4996214;28;96944;-49
2022/07/02 09:03:50;;;;;;;0.60;0.50;;;;;;;23.93;44.14;102099.91;4988299;28;97430;-49
2022/07/02 09:06:19;;;;;;;1.10;0.67;;;;;;;24.04;43.88;102094.00;4993843;28;96998;-50
2022/07/02 09:08:45;;;;;;;0.80;0.50;;;;;;;24.03;43.82;102096.06;4986928;28;97015;-49
2022/07/02 09:11:11;;;;;;;0.70;0.50;;;;;;;24.15;43.60;102096.53;4993940;28;96927;-49
2022/07/02 09:13:37;;;;;;;1.17;0.53;;;;;;;24.35;43.12;102088.00;4994759;28;97369;-49
2022/07/02 09:16:05;;;;;;;0.70;0.50;;;;;;;24.57;42.79;102089.44;4996602;28;97497;-49
2022/07/02 09:18:31;;;;;;;0.80;0.60;;;;;;;24.71;42.68;102084.41;4994142;28;97017;-49
2022/07/02 09:20:56;;;;;;;0.70;0.50;;;;;;;24.89;42.26;102075.69;4991664;28;102664;-49
2022/07/02 09:23:22;;;;;;;0.93;0.50;;;;;;;25.11;41.96;102086.25;4997912;28;97061;-50
2022/07/02 09:25:51;;;;;;;0.67;0.50;;;;;;;25.40;41.84;102086.13;4999265;28;97338;-49
2022/07/02 09:28:18;;;;;;;0.70;0.50;;;;;;;25.61;41.32;102076.19;4997445;28;96776;-50
2022/07/02 09:30:43;;;;;;;0.70;0.50;;;;;;;25.81;40.52;102077.28;4984799;28;97157;-50
2022/07/02 09:33:39;;;;;;;1.37;0.50;;;;;;;25.98;39.19;102066.94;4993559;28;96836;-51
2022/07/02 09:36:10;;;;;;;1.03;0.50;;;;;;;26.21;40.02;102066.16;4992934;28;101704;-49
2022/07/02 09:38:43;;;;;;;0.70;0.40;;;;;;;26.24;39.59;102068.56;4991457;28;96867;-50
2022/07/02 09:41:14;;;;;;;1.33;0.40;;;;;;;26.21;39.15;102064.06;4996778;28;97019;-50
2022/07/02 09:43:40;;;;;;;0.90;0.57;;;;;;;25.99;39.83;102065.59;4991874;28;97193;-50
2022/07/02 09:46:17;;;;;;;0.70;0.40;;;;;;;26.11;38.91;102062.41;4993208;28;97222;-50
2022/07/02 09:48:42;;;;;;;0.93;0.37;;;;;;;26.29;39.89;102064.81;4999485;28;97062;-49
2022/07/02 09:51:07;;;;;;;0.70;0.60;;;;;;;26.57;39.42;102060.91;4996850;28;96988;-49
2022/07/02 09:53:33;;;;;;;0.60;0.40;;;;;;;26.79;39.10;102062.16;4996852;28;96983;-50
2022/07/02 09:56:02;;;;;;;1.20;0.63;;;;;;;26.90;38.95;102056.81;4994411;28;97126;-51
2022/07/02 09:58:28;;;;;;;0.90;0.40;;;;;;;26.94;38.99;102056.41;4997264;28;97136;-50
2022/07/02 10:00:59;;;;;;;0.70;0.50;;;;;;;26.87;38.85;102045.91;5008648;28;97044;-49
2022/07/02 10:03:25;;;;;;;3.97;0.70;;;;;;;26.66;38.92;102049.78;5007449;28;97140;-50
2022/07/02 10:05:54;;;;;;;0.60;0.43;;;;;;;26.49;39.08;102046.84;5004914;28;97133;-50
2022/07/02 10:08:20;;;;;;;0.90;0.60;;;;;;;26.33;39.26;102048.22;5006915;28;96815;-50
2022/07/02 10:10:45;;;;;;;1.00;0.77;;;;;;;26.34;39.03;102041.25;5001495;28;97251;-49
2022/07/02 10:13:13;;;;;;;2.27;0.63;;;;;;;26.42;38.98;102050.47;4998035;28;98666;-50
2022/07/02 10:15:51;;;;;;;1.20;0.60;;;;;;;26.64;37.57;102035.47;4999381;28;100463;-50
2022/07/02 10:18:18;;;;;;;0.70;0.60;;;;;;;26.84;38.23;102039.34;5003886;28;96962;-50
2022/07/02 10:20:44;;;;;;;0.60;0.57;;;;;;;26.78;38.21;102038.06;5008901;28;97055;-50
2022/07/02 10:23:11;;;;;;;2.40;0.63;;;;;;;26.66;38.07;102038.47;5006151;28;97048;-50
2022/07/02 10:25:36;;;;;;;0.73;0.50;;;;;;;26.55;38.20;102033.28;4997944;28;97923;-49
2022/07/02 10:28:02;;;;;;;1.47;0.67;;;;;;;26.47;38.18;102043.09;5002304;28;97182;-50
2022/07/02 10:30:32;;;;;;;1.67;0.60;;;;;;;26.42;38.32;102041.22;5001784;28;97163;-50
2022/07/02 10:33:13;;;;;;;1.20;0.60;;;;;;;26.47;37.49;102038.19;5007792;28;101195;-49
2022/07/02 10:35:40;;;;;;;0.70;0.43;;;;;;;26.54;38.12;102037.41;4999937;28;100331;-50
2022/07/02 10:38:06;;;;;;;2.20;0.80;;;;;;;26.50;38.29;102031.41;4998203;28;96866;-51
2022/07/02 10:40:32;;;;;;;0.90;0.43;;;;;;;26.51;37.96;102035.75;4996848;28;96864;-49
2022/07/02 10:43:01;;;;;;;0.80;0.50;;;;;;;26.43;38.05;102034.28;4998813;28;97128;-50
2022/07/02 10:45:27;;;;;;;1.77;0.90;;;;;;;26.30;37.95;102040.16;4990962;28;96984;-50
2022/07/02 10:48:04;;;;;;;1.00;0.60;;;;;;;26.29;36.82;102036.59;5004327;28;97316;-48
2022/07/02 10:50:35;;;;;;;0.70;0.50;;;;;;;26.45;37.16;102029.53;5000042;28;96945;-49
2022/07/02 10:53:24;;;;;;;0.90;0.60;;;;;;;26.38;37.34;102030.34;4998896;28;97022;-50
2022/07/02 10:55:55;;;;;;;0.70;0.60;;;;;;;26.34;36.86;102024.31;4996946;28;101662;-49
2022/07/02 10:58:26;;;;;;;0.93;0.50;;;;;;;26.40;38.08;102024.13;4998540;28;96861;-49
2022/07/02 11:00:52;;;;;;;1.03;0.53;;;;;;;26.61;37.91;102019.69;4997504;28;97345;-49
2022/07/02 11:03:24;;;;;;;2.00;0.70;;;;;;;26.79;37.46;102023.38;5007310;28;97555;-49
2022/07/02 11:06:00;;;;;;;0.90;0.40;;;;;;;26.98;36.75;102012.31;4997377;28;97105;-50
2022/07/02 11:08:45;;;;;;;0.93;0.50;;;;;;;27.05;36.50;102003.03;4991010;28;97153;-49
2022/07/02 11:11:16;;;;;;;0.93;0.53;;;;;;;27.12;37.09;102004.31;4995234;28;97046;-50
2022/07/02 11:14:10;;;;;;;0.60;0.40;;;;;;;27.26;36.43;102003.41;4992233;28;96962;-49
2022/07/02 11:16:48;;;;;;;1.10;0.63;;;;;;;27.46;36.11;102001.56;4987890;28;101366;-51
2022/07/02 11:19:30;;;;;;;0.90;0.53;;;;;;;27.58;35.46;102005.44;4993806;28;97280;-50
2022/07/02 11:21:58;;;;;;;0.70;0.50;;;;;;;27.70;36.46;102000.78;4999014;28;97137;-48
2022/07/02 11:24:28;;;;;;;0.87;0.50;;;;;;;27.79;36.05;101999.38;4999695;28;97291;-50
2022/07/02 11:26:55;;;;;;;0.97;0.70;;;;;;;27.97;35.97;101998.03;5000002;28;97286;-50